Time;durP1;ratioP1;P1;durP2;ratioP2;P2;SDS_P1;SDS_P2;PMS_P1;PMS_P2;Temp;Humidity;BMP_temperature;BMP_pressure;BME280_temperature;BME280_humidity;BME280_pressure;Samples;Min_cycle;Max_cycle;Signal;HPM_P1;HPM_P2
2023/06/10 00:01:47;;;;;;;16.00;8.75;;;15.50;99.90;;;;;;5020515;28;20513;-81
2023/06/10 00:04:16;;;;;;;15.27;8.63;;;15.50;99.90;;;;;;5026301;28;20094;-81
2023/06/10 00:06:49;;;;;;;16.05;9.13;;;15.40;99.90;;;;;;5021265;28;20037;-82
2023/06/10 00:09:18;;;;;;;16.27;8.65;;;15.40;99.90;;;;;;5024067;28;20037;-79
2023/06/10 00:11:44;;;;;;;14.80;8.15;;;15.40;99.90;;;;;;5022713;28;20394;-81
2023/06/10 00:14:10;;;;;;;14.70;9.15;;;15.40;99.90;;;;;;5020735;28;20056;-80
2023/06/10 00:16:36;;;;;;;15.07;8.77;;;15.40;99.90;;;;;;5021943;28;20033;-80
2023/06/10 00:19:03;;;;;;;12.20;7.50;;;15.40;99.90;;;;;;5023743;28;20091;-80
2023/06/10 00:21:37;;;;;;;13.70;8.32;;;15.40;99.90;;;;;;5023364;28;20452;-82
2023/06/10 00:24:07;;;;;;;14.18;8.40;;;15.30;99.90;;;;;;5023557;28;20054;-79
2023/06/10 00:26:33;;;;;;;14.88;8.70;;;15.30;99.90;;;;;;5006582;28;20072;-82
2023/06/10 00:28:59;;;;;;;14.90;8.23;;;15.30;99.90;;;;;;4999924;28;20731;-82
2023/06/10 00:31:28;;;;;;;14.20;8.25;;;15.20;99.90;;;;;;5022101;28;20048;-81
2023/06/10 00:33:53;;;;;;;12.95;8.10;;;15.20;99.90;;;;;;5024070;28;20045;-82
2023/06/10 00:36:20;;;;;;;15.80;8.10;;;15.20;99.90;;;;;;5012614;28;20049;-81
2023/06/10 00:38:46;;;;;;;14.77;7.88;;;15.10;99.90;;;;;;5020561;28;20041;-82
2023/06/10 00:41:12;;;;;;;13.40;7.72;;;15.10;99.90;;;;;;5022344;28;20096;-82
2023/06/10 00:43:37;;;;;;;14.15;8.18;;;15.10;99.90;;;;;;5017009;28;20112;-81
2023/06/10 00:46:03;;;;;;;13.57;8.10;;;15.10;99.90;;;;;;5017346;28;20107;-81
2023/06/10 00:48:29;;;;;;;11.77;7.30;;;15.10;99.90;;;;;;5024059;28;20394;-82
2023/06/10 00:50:55;;;;;;;12.25;7.85;;;15.10;99.90;;;;;;5019476;28;20118;-82
2023/06/10 00:53:22;;;;;;;12.00;7.45;;;15.10;99.90;;;;;;5020566;28;20509;-82
2023/06/10 00:55:48;;;;;;;14.57;8.15;;;15.00;99.90;;;;;;5018759;28;20046;-81
2023/06/10 00:58:17;;;;;;;12.60;7.40;;;15.00;99.90;;;;;;5019123;28;20115;-81
2023/06/10 01:00:44;;;;;;;14.63;7.30;;;15.00;99.90;;;;;;5021124;28;20512;-82
2023/06/10 01:03:11;;;;;;;18.65;8.63;;;15.00;99.90;;;;;;5022776;28;20042;-83
2023/06/10 01:05:38;;;;;;;14.50;8.05;;;15.00;99.90;;;;;;5012734;28;20588;-81
2023/06/10 01:08:18;;;;;;;14.10;7.60;;;15.00;99.90;;;;;;5016944;28;20052;-78
2023/06/10 01:10:55;;;;;;;16.70;8.13;;;14.90;99.90;;;;;;5018940;28;20781;-82
2023/06/10 01:13:23;;;;;;;14.18;8.05;;;14.90;99.90;;;;;;5018659;28;20048;-82
2023/06/10 01:15:51;;;;;;;11.60;7.25;;;14.80;99.90;;;;;;5015008;28;20464;-82
2023/06/10 01:18:17;;;;;;;11.18;8.25;;;14.80;99.90;;;;;;5014886;28;20046;-81
2023/06/10 01:20:46;;;;;;;12.45;8.00;;;14.80;99.90;;;;;;5013783;28;20048;-82
2023/06/10 01:23:11;;;;;;;14.93;8.18;;;14.70;99.90;;;;;;5000466;28;20046;-82
2023/06/10 01:25:45;;;;;;;15.48;7.63;;;14.70;99.90;;;;;;5019613;28;20096;-83
2023/06/10 01:28:13;;;;;;;13.20;7.22;;;14.60;99.90;;;;;;5011809;28;20056;-83
2023/06/10 01:31:00;;;;;;;15.48;8.68;;;14.60;99.90;;;;;;5010405;28;20041;-82
2023/06/10 01:33:30;;;;;;;13.05;8.35;;;14.60;99.90;;;;;;5018114;28;20136;-84
2023/06/10 01:36:01;;;;;;;14.55;8.55;;;14.70;99.90;;;;;;5017548;28;20048;-84
2023/06/10 01:38:29;;;;;;;12.95;8.00;;;14.60;99.90;;;;;;5008093;28;20077;-82
2023/06/10 01:40:58;;;;;;;11.30;7.43;;;14.60;99.90;;;;;;5000969;28;20120;-83
2023/06/10 01:43:24;;;;;;;15.20;7.88;;;14.60;99.90;;;;;;5015344;28;20072;-83
2023/06/10 01:45:50;;;;;;;16.15;8.02;;;14.60;99.90;;;;;;5016044;28;20041;-83
2023/06/10 01:48:16;;;;;;;11.50;8.13;;;14.60;99.90;;;;;;5018550;28;20045;-83
2023/06/10 01:50:43;;;;;;;12.18;7.82;;;14.60;99.90;;;;;;5014295;28;20387;-82
2023/06/10 01:53:09;;;;;;;11.07;7.57;;;14.50;99.90;;;;;;5018000;28;20405;-82
2023/06/10 01:55:35;;;;;;;12.13;7.70;;;14.50;99.90;;;;;;5021211;28;20034;-84
2023/06/10 01:58:00;;;;;;;16.42;7.95;;;14.50;99.90;;;;;;5020581;28;20378;-83
2023/06/10 02:00:26;;;;;;;11.23;8.20;;;14.40;99.90;;;;;;5018985;28;20454;-84
2023/06/10 02:02:52;;;;;;;13.52;8.15;;;14.40;99.90;;;;;;5019080;28;21108;-83
2023/06/10 02:05:18;;;;;;;13.43;7.93;;;14.40;99.90;;;;;;5015168;28;20041;-83
2023/06/10 02:07:43;;;;;;;12.18;8.27;;;14.40;99.90;;;;;;5012122;28;20069;-82
2023/06/10 02:10:09;;;;;;;14.57;8.13;;;14.40;99.90;;;;;;4994530;28;20569;-84
2023/06/10 02:12:38;;;;;;;15.95;9.05;;;14.30;99.90;;;;;;5011941;28;20049;-82
2023/06/10 02:15:03;;;;;;;12.75;7.88;;;14.30;99.90;;;;;;5002026;28;20065;-81
2023/06/10 02:17:30;;;;;;;11.07;8.05;;;14.40;99.90;;;;;;5019407;28;20147;-83
2023/06/10 02:19:56;;;;;;;11.73;8.02;;;14.40;99.90;;;;;;5017639;28;20049;-83
2023/06/10 02:22:23;;;;;;;10.43;7.25;;;14.30;99.90;;;;;;5018288;28;20143;-83
2023/06/10 02:24:52;;;;;;;15.80;7.65;;;14.30;99.90;;;;;;5020067;28;20044;-82
2023/06/10 02:27:22;;;;;;;13.90;7.70;;;14.30;99.90;;;;;;5018165;28;20056;-83
2023/06/10 02:29:48;;;;;;;11.32;8.00;;;14.20;99.90;;;;;;5019439;28;20132;-83
2023/06/10 02:32:13;;;;;;;12.73;8.15;;;14.20;99.90;;;;;;5023229;28;20116;-83
2023/06/10 02:34:39;;;;;;;15.77;7.82;;;14.10;99.90;;;;;;5022447;28;20508;-82
2023/06/10 02:37:05;;;;;;;15.77;8.15;;;14.10;99.90;;;;;;5019684;28;20042;-82
2023/06/10 02:39:30;;;;;;;11.93;7.80;;;13.90;99.90;;;;;;5019967;28;20180;-81
2023/06/10 02:41:56;;;;;;;12.45;7.43;;;13.90;99.90;;;;;;5022096;28;20095;-84
2023/06/10 02:44:22;;;;;;;11.50;7.35;;;13.90;99.90;;;;;;5017905;28;20531;-82
2023/06/10 02:46:47;;;;;;;13.60;7.75;;;13.80;99.90;;;;;;5033890;28;20056;-83
2023/06/10 02:49:13;;;;;;;16.17;8.40;;;13.80;99.90;;;;;;5025692;28;20044;-83
2023/06/10 02:51:39;;;;;;;10.60;7.03;;;13.70;99.90;;;;;;5019765;28;20080;-83
2023/06/10 02:54:05;;;;;;;12.60;7.63;;;13.70;99.90;;;;;;5028988;28;20118;-83
2023/06/10 02:56:32;;;;;;;10.52;7.72;;;13.70;99.90;;;;;;5017865;28;20048;-83
2023/06/10 02:58:58;;;;;;;12.57;7.75;;;13.60;99.90;;;;;;5015990;28;20152;-84
2023/06/10 03:01:24;;;;;;;13.70;7.88;;;13.60;99.90;;;;;;5015143;28;20348;-84
2023/06/10 03:03:53;;;;;;;17.33;8.15;;;13.60;99.90;;;;;;5022369;28;20367;-83
2023/06/10 03:06:18;;;;;;;14.60;7.63;;;13.60;99.90;;;;;;5019792;28;20056;-81
2023/06/10 03:08:45;;;;;;;12.95;7.97;;;13.60;99.90;;;;;;5024485;28;20042;-82
2023/06/10 03:11:11;;;;;;;10.85;7.80;;;13.50;99.90;;;;;;5025445;28;20112;-84
2023/06/10 03:13:38;;;;;;;11.85;7.45;;;13.50;99.90;;;;;;5024961;28;20076;-84
2023/06/10 03:16:04;;;;;;;13.90;8.20;;;13.50;99.90;;;;;;5023039;28;20042;-83
2023/06/10 03:18:30;;;;;;;12.10;7.80;;;13.40;99.90;;;;;;5023779;28;20042;-84
2023/06/10 03:20:56;;;;;;;14.27;7.38;;;13.40;99.90;;;;;;5023900;28;20037;-81
2023/06/10 03:23:23;;;;;;;11.27;7.40;;;13.40;99.90;;;;;;5021375;28;20077;-83
2023/06/10 03:25:48;;;;;;;12.07;8.07;;;13.40;99.90;;;;;;5020817;28;20041;-83
2023/06/10 03:28:14;;;;;;;12.60;7.78;;;13.30;99.90;;;;;;5001108;28;20075;-83
2023/06/10 03:30:40;;;;;;;10.77;7.65;;;13.30;99.90;;;;;;5018124;28;20281;-84
2023/06/10 03:33:05;;;;;;;12.77;8.35;;;13.30;99.90;;;;;;5014828;28;20527;-82
2023/06/10 03:35:34;;;;;;;12.82;7.55;;;13.30;99.90;;;;;;5016934;28;20053;-82
2023/06/10 03:38:00;;;;;;;11.52;7.35;;;13.30;99.90;;;;;;5014532;28;20400;-83
2023/06/10 03:40:26;;;;;;;15.57;8.02;;;13.30;99.90;;;;;;5020679;28;20136;-82
2023/06/10 03:42:51;;;;;;;13.10;7.28;;;13.30;99.90;;;;;;4998973;28;20374;-84
2023/06/10 03:45:17;;;;;;;10.13;7.72;;;13.20;99.90;;;;;;5002498;28;20045;-81
2023/06/10 03:47:43;;;;;;;13.70;7.75;;;13.30;99.90;;;;;;5020451;28;20067;-81
2023/06/10 03:50:09;;;;;;;13.63;8.02;;;13.30;99.90;;;;;;4999886;28;20060;-81
2023/06/10 03:52:36;;;;;;;11.23;7.32;;;13.20;99.90;;;;;;5018431;28;20056;-82
2023/06/10 03:55:02;;;;;;;10.43;7.80;;;13.30;99.90;;;;;;5001375;28;20477;-80
2023/06/10 03:57:28;;;;;;;11.35;8.10;;;13.30;99.90;;;;;;5020665;28;20049;-81
2023/06/10 03:59:54;;;;;;;12.38;7.45;;;13.30;99.90;;;;;;5016982;28;20404;-82
2023/06/10 04:02:22;;;;;;;12.05;7.75;;;13.30;99.90;;;;;;5012950;28;20489;-80
2023/06/10 04:04:48;;;;;;;12.90;8.30;;;13.40;99.90;;;;;;5015391;28;20508;-82
2023/06/10 04:07:14;;;;;;;15.35;8.35;;;13.50;99.90;;;;;;5012154;28;20077;-81
2023/06/10 04:09:40;;;;;;;11.80;7.85;;;13.70;99.90;;;;;;5014794;28;20420;-82
2023/06/10 04:12:08;;;;;;;12.75;7.30;;;13.90;99.90;;;;;;5013225;28;20279;-81
2023/06/10 04:14:36;;;;;;;12.18;7.60;;;14.10;99.90;;;;;;5013024;28;20037;-81
2023/06/10 04:17:08;;;;;;;13.77;7.93;;;14.50;99.90;;;;;;5012071;28;20044;-79
2023/06/10 04:19:33;;;;;;;14.17;8.80;;;15.00;99.90;;;;;;5015345;28;20393;-81
2023/06/10 04:22:02;;;;;;;11.63;7.50;;;15.50;99.90;;;;;;5015893;28;20303;-81
2023/06/10 04:24:30;;;;;;;11.95;7.55;;;16.00;99.90;;;;;;5017171;28;20054;-81
2023/06/10 04:26:56;;;;;;;13.13;7.45;;;16.30;99.90;;;;;;5018878;28;20529;-82
2023/06/10 04:29:22;;;;;;;11.50;7.65;;;16.40;99.90;;;;;;5017951;28;20045;-81
2023/06/10 04:31:50;;;;;;;13.02;7.72;;;16.00;99.90;;;;;;5018491;28;20041;-81
2023/06/10 04:34:16;;;;;;;12.13;7.55;;;15.50;99.90;;;;;;5021240;28;20050;-82
2023/06/10 04:36:42;;;;;;;12.05;7.28;;;15.20;99.90;;;;;;5014443;28;20424;-81
2023/06/10 04:39:10;;;;;;;11.27;6.70;;;14.90;99.90;;;;;;5020187;28;20045;-79
2023/06/10 04:41:36;;;;;;;11.93;7.15;;;14.70;99.90;;;;;;5010829;28;20147;-80
2023/06/10 04:44:02;;;;;;;10.65;7.20;;;14.60;99.90;;;;;;5016497;28;20045;-79
2023/06/10 04:46:27;;;;;;;12.82;7.47;;;14.50;99.90;;;;;;5020307;28;20491;-82
2023/06/10 04:48:54;;;;;;;12.00;6.78;;;14.50;99.90;;;;;;5014746;28;20053;-81
2023/06/10 04:51:20;;;;;;;12.23;6.70;;;14.50;99.90;;;;;;5014116;28;20090;-82
2023/06/10 04:53:45;;;;;;;12.85;6.97;;;14.50;99.90;;;;;;5020299;28;20034;-81
2023/06/10 04:56:11;;;;;;;10.48;7.00;;;14.50;99.90;;;;;;5018564;28;20120;-81
2023/06/10 04:58:36;;;;;;;10.27;6.38;;;14.70;99.90;;;;;;5024116;28;20443;-82
2023/06/10 05:01:02;;;;;;;11.27;6.50;;;14.70;99.90;;;;;;5018719;28;20521;-81
2023/06/10 05:03:28;;;;;;;9.18;6.55;;;14.90;99.90;;;;;;5018492;28;20048;-81
2023/06/10 05:05:54;;;;;;;12.00;6.50;;;15.00;99.90;;;;;;5001193;28;20477;-81
2023/06/10 05:08:22;;;;;;;13.07;6.57;;;15.10;99.90;;;;;;5019737;28;20056;-81
2023/06/10 05:10:48;;;;;;;9.05;5.97;;;15.20;99.90;;;;;;5016438;28;20451;-81
2023/06/10 05:13:13;;;;;;;12.52;6.38;;;15.30;99.90;;;;;;5002617;28;20095;-82
2023/06/10 05:15:40;;;;;;;13.77;7.68;;;15.40;99.90;;;;;;5020151;28;20107;-82
2023/06/10 05:18:05;;;;;;;13.57;6.63;;;15.40;99.90;;;;;;5020691;28;22014;-81
2023/06/10 05:20:31;;;;;;;13.07;6.15;;;15.50;99.90;;;;;;5019408;28;20053;-83
2023/06/10 05:22:57;;;;;;;12.48;6.38;;;15.60;99.90;;;;;;5018339;28;20128;-82
2023/06/10 05:25:22;;;;;;;12.43;6.50;;;15.70;99.90;;;;;;5020546;28;20049;-84
2023/06/10 05:27:48;;;;;;;13.35;6.03;;;15.80;99.90;;;;;;4992752;28;20033;-82
2023/06/10 05:30:14;;;;;;;11.35;5.85;;;15.90;99.90;;;;;;5020319;28;20424;-83
2023/06/10 05:32:39;;;;;;;11.80;6.22;;;16.00;99.90;;;;;;5014372;28;20052;-83
2023/06/10 05:35:06;;;;;;;8.80;5.53;;;16.10;99.90;;;;;;5020490;28;20176;-82
2023/06/10 05:37:36;;;;;;;11.07;6.03;;;16.20;99.90;;;;;;5015461;28;21412;-82
2023/06/10 05:40:04;;;;;;;13.55;6.35;;;16.20;99.90;;;;;;5015406;28;20525;-82
2023/06/10 05:42:29;;;;;;;12.35;6.60;;;16.30;99.90;;;;;;5015425;28;20048;-83
2023/06/10 05:44:55;;;;;;;11.73;6.50;;;16.40;99.90;;;;;;5018470;28;20054;-82
2023/06/10 05:47:21;;;;;;;12.65;6.45;;;16.50;99.90;;;;;;5014407;28;20333;-84
2023/06/10 05:49:48;;;;;;;13.32;6.88;;;16.50;99.90;;;;;;5020458;28;20057;-82
2023/06/10 05:52:14;;;;;;;16.17;5.68;;;16.60;99.90;;;;;;5015921;28;20087;-83
2023/06/10 05:54:39;;;;;;;16.33;7.40;;;16.70;99.90;;;;;;5010456;28;20080;-84
2023/06/10 05:57:05;;;;;;;11.63;6.00;;;16.80;99.90;;;;;;5019464;28;20420;-83
2023/06/10 05:59:31;;;;;;;12.48;6.38;;;16.90;99.90;;;;;;5016245;28;20045;-84
2023/06/10 06:01:58;;;;;;;8.77;6.00;;;17.10;99.90;;;;;;5009697;28;20593;-83
2023/06/10 06:04:23;;;;;;;11.45;6.53;;;17.20;99.90;;;;;;5018971;28;20071;-83
2023/06/10 06:06:52;;;;;;;12.25;5.80;;;17.30;99.90;;;;;;5012377;28;20050;-82
2023/06/10 06:09:21;;;;;;;16.08;6.43;;;17.40;99.90;;;;;;5012385;28;20127;-84
2023/06/10 06:11:46;;;;;;;11.90;6.07;;;17.50;99.90;;;;;;5011926;28;20041;-82
2023/06/10 06:14:12;;;;;;;12.93;6.10;;;17.60;99.90;;;;;;4991748;28;20045;-82
2023/06/10 06:16:38;;;;;;;11.13;5.43;;;17.60;99.90;;;;;;5011926;28;20555;-83
2023/06/10 06:19:04;;;;;;;13.70;6.05;;;17.80;99.90;;;;;;5016912;28;20053;-83
2023/06/10 06:21:29;;;;;;;13.38;5.68;;;17.90;99.90;;;;;;4996724;28;20045;-82
2023/06/10 06:23:55;;;;;;;15.20;6.30;;;18.00;99.90;;;;;;5021837;28;20045;-82
2023/06/10 06:26:21;;;;;;;9.57;5.30;;;18.10;99.90;;;;;;5018477;28;20041;-83
2023/06/10 06:28:46;;;;;;;11.90;6.38;;;18.20;99.90;;;;;;5019992;28;20402;-83
2023/06/10 06:31:12;;;;;;;11.93;5.43;;;18.30;99.90;;;;;;5015060;28;20060;-83
2023/06/10 06:33:37;;;;;;;13.52;6.13;;;18.40;99.90;;;;;;5017019;28;20077;-83
2023/06/10 06:36:03;;;;;;;10.35;6.43;;;18.50;99.90;;;;;;5021374;28;20108;-85
2023/06/10 06:38:29;;;;;;;13.77;6.78;;;18.70;99.90;;;;;;5019351;28;20046;-84
2023/06/10 06:40:54;;;;;;;14.70;6.03;;;18.70;99.90;;;;;;5016079;28;21361;-83
2023/06/10 06:43:20;;;;;;;9.60;6.35;;;18.80;99.90;;;;;;5018516;28;20060;-83
2023/06/10 06:45:46;;;;;;;12.70;5.95;;;18.90;99.90;;;;;;4998030;28;20048;-84
2023/06/10 06:48:12;;;;;;;12.00;6.13;;;19.10;99.90;;;;;;5010068;28;20563;-84
2023/06/10 06:50:41;;;;;;;10.57;5.18;;;19.20;99.90;;;;;;5022113;28;20172;-86
2023/06/10 06:53:07;;;;;;;10.65;6.07;;;19.30;99.90;;;;;;5016326;28;20241;-85
2023/06/10 06:55:32;;;;;;;11.02;5.93;;;19.40;99.90;;;;;;5020079;28;20295;-86
2023/06/10 06:57:59;;;;;;;10.77;5.60;;;19.50;99.90;;;;;;5024446;28;20045;-87
2023/06/10 07:00:25;;;;;;;14.05;5.70;;;19.60;99.90;;;;;;5019817;28;20137;-86
2023/06/10 07:02:50;;;;;;;9.98;5.30;;;19.80;99.90;;;;;;5026139;28;20132;-87
2023/06/10 07:05:16;;;;;;;11.00;5.40;;;19.90;99.90;;;;;;5021037;28;20084;-81
2023/06/10 07:07:41;;;;;;;9.13;5.78;;;20.00;99.90;;;;;;5016748;28;20528;-88
2023/06/10 07:10:07;;;;;;;13.57;5.68;;;20.10;99.90;;;;;;5030351;28;20111;-88
2023/06/10 07:12:33;;;;;;;11.18;5.38;;;20.10;99.90;;;;;;5012061;28;20056;-89
2023/06/10 07:14:59;;;;;;;12.45;6.18;;;20.30;99.90;;;;;;5026004;28;20513;-89
2023/06/10 07:17:24;;;;;;;11.68;4.97;;;20.40;99.90;;;;;;5019528;28;20136;-90
2023/06/10 07:19:51;;;;;;;10.65;5.07;;;20.40;99.90;;;;;;5026625;28;20068;-88
2023/06/10 07:22:17;;;;;;;9.75;5.07;;;20.60;99.90;;;;;;5024713;28;20590;-87
2023/06/10 07:24:42;;;;;;;11.77;5.50;;;20.80;99.90;;;;;;5032938;28;20038;-90
2023/06/10 07:27:10;;;;;;;12.20;5.75;;;20.90;99.90;;;;;;5032513;28;20114;-89
2023/06/10 07:29:35;;;;;;;10.75;5.43;;;21.00;99.90;;;;;;5031561;28;20068;-90
2023/06/10 07:32:03;;;;;;;10.95;5.05;;;21.10;99.90;;;;;;5008073;28;20060;-85
2023/06/10 07:34:29;;;;;;;11.05;5.85;;;21.10;99.90;;;;;;5032976;28;20072;-89
2023/06/10 07:36:54;;;;;;;11.13;5.30;;;21.20;99.90;;;;;;5024037;28;20468;-89
2023/06/10 07:39:20;;;;;;;11.50;5.15;;;21.40;99.90;;;;;;5022489;28;21142;-89
2023/06/10 07:41:46;;;;;;;9.98;5.55;;;21.40;99.90;;;;;;5029434;28;20037;-86
2023/06/10 07:44:12;;;;;;;11.02;5.53;;;21.40;99.90;;;;;;5028487;28;20659;-88
2023/06/10 07:46:37;;;;;;;8.98;5.10;;;21.50;99.90;;;;;;5022968;28;20045;-88
2023/06/10 07:49:03;;;;;;;9.02;4.38;;;21.60;99.90;;;;;;5027513;28;20073;-85
2023/06/10 07:51:29;;;;;;;9.38;4.85;;;21.70;99.90;;;;;;5013015;28;20509;-89
2023/06/10 07:53:54;;;;;;;9.68;4.97;;;21.80;99.90;;;;;;5026826;28;20034;-88
2023/06/10 07:56:21;;;;;;;8.30;4.70;;;21.90;99.90;;;;;;5026324;28;20049;-89
2023/06/10 07:58:47;;;;;;;10.00;5.18;;;21.90;99.90;;;;;;5026182;28;20033;-86
2023/06/10 08:01:12;;;;;;;9.85;4.95;;;22.10;99.90;;;;;;5023619;28;20560;-86
2023/06/10 08:03:38;;;;;;;8.63;4.20;;;22.10;99.90;;;;;;5027750;28;20068;-85
2023/06/10 08:06:05;;;;;;;11.40;4.43;;;22.10;99.90;;;;;;5026625;28;20063;-85
2023/06/10 08:08:31;;;;;;;10.23;4.68;;;22.10;99.90;;;;;;5026819;28;20042;-77
2023/06/10 08:10:56;;;;;;;7.80;4.55;;;22.20;99.90;;;;;;5026696;28;20048;-78
2023/06/10 08:13:22;;;;;;;8.20;4.38;;;22.40;99.90;;;;;;5028763;28;20132;-82
2023/06/10 08:15:50;;;;;;;10.07;4.72;;;22.40;99.90;;;;;;5029891;28;20061;-90
2023/06/10 08:18:16;;;;;;;10.15;4.85;;;22.40;99.90;;;;;;5029481;28;20392;-88
2023/06/10 08:20:41;;;;;;;9.18;4.63;;;22.40;99.90;;;;;;5025891;28;20549;-89
2023/06/10 08:23:07;;;;;;;7.55;4.68;;;22.40;99.90;;;;;;5025948;28;20066;-86
2023/06/10 08:25:33;;;;;;;12.13;4.95;;;22.60;99.90;;;;;;5027706;28;20052;-88
2023/06/10 08:27:58;;;;;;;9.65;4.70;;;22.60;99.90;;;;;;5020992;28;20049;-86
2023/06/10 08:30:24;;;;;;;9.65;4.68;;;22.60;99.90;;;;;;5024449;28;20042;-93
2023/06/10 08:32:53;;;;;;;9.95;4.80;;;22.80;99.90;;;;;;5027054;28;20049;-86
2023/06/10 08:35:18;;;;;;;10.27;4.82;;;22.90;99.90;;;;;;5017141;28;20437;-87
2023/06/10 08:37:44;;;;;;;9.93;4.85;;;22.90;99.90;;;;;;5023219;28;20045;-87
2023/06/10 08:40:10;;;;;;;8.20;4.30;;;22.90;99.90;;;;;;5027419;28;20037;-84
2023/06/10 08:43:08;;;;;;;8.88;4.40;;;23.00;99.90;;;;;;5028090;28;20421;-86
2023/06/10 08:45:36;;;;;;;9.18;3.95;;;23.10;99.90;;;;;;5010798;28;20057;-86
2023/06/10 08:48:06;;;;;;;9.02;3.90;;;23.10;99.90;;;;;;5024052;28;20072;-83
2023/06/10 08:50:36;;;;;;;8.85;4.20;;;23.30;99.90;;;;;;5019408;28;20950;-76
2023/06/10 08:53:05;;;;;;;9.80;4.25;;;23.40;99.90;;;;;;5022106;28;20165;-87
2023/06/10 08:55:33;;;;;;;6.78;3.92;;;23.40;99.90;;;;;;5026363;28;20045;-86
2023/06/10 08:58:02;;;;;;;9.50;4.32;;;23.40;99.90;;;;;;5027239;28;20412;-83
2023/06/10 09:00:33;;;;;;;7.97;4.03;;;23.40;99.90;;;;;;5022239;28;20049;-85
2023/06/10 09:03:01;;;;;;;7.40;4.15;;;23.50;99.90;;;;;;5023114;28;20038;-84
2023/06/10 09:05:28;;;;;;;9.68;4.13;;;23.60;99.90;;;;;;5018212;28;20373;-81
2023/06/10 09:07:57;;;;;;;6.40;3.85;;;23.70;99.90;;;;;;4997298;28;20128;-85
2023/06/10 09:10:22;;;;;;;7.95;3.83;;;23.70;99.90;;;;;;5019313;28;20037;-84
2023/06/10 09:12:48;;;;;;;5.72;3.97;;;23.70;99.90;;;;;;5025291;28;20091;-83
2023/06/10 09:15:14;;;;;;;8.23;4.07;;;23.80;99.90;;;;;;5012002;28;20542;-84
2023/06/10 09:17:40;;;;;;;10.45;4.63;;;23.90;99.90;;;;;;5021547;28;20034;-84
2023/06/10 09:20:07;;;;;;;7.30;3.53;;;24.10;99.90;;;;;;5025333;28;20119;-81
2023/06/10 09:22:33;;;;;;;6.47;3.58;;;24.20;99.90;;;;;;5034339;28;20103;-80
2023/06/10 09:25:08;;;;;;;9.27;4.68;;;24.30;99.90;;;;;;5022886;28;20037;-81
2023/06/10 09:27:48;;;;;;;7.65;4.72;;;24.20;99.90;;;;;;5016272;28;20045;-82
2023/06/10 09:30:28;;;;;;;8.50;4.15;;;24.10;99.90;;;;;;5018505;28;20083;-85
2023/06/10 09:32:56;;;;;;;8.93;3.85;;;24.20;99.90;;;;;;5019470;28;20037;-81
2023/06/10 09:35:25;;;;;;;9.95;3.97;;;24.30;99.90;;;;;;5014791;28;20078;-84
2023/06/10 09:37:56;;;;;;;6.32;3.92;;;24.30;99.90;;;;;;4971936;28;20046;-83
2023/06/10 09:40:22;;;;;;;6.88;4.10;;;24.30;99.90;;;;;;5021292;28;20120;-83
2023/06/10 09:42:54;;;;;;;7.00;3.78;;;24.30;99.90;;;;;;5017726;28;20128;-83
2023/06/10 09:45:21;;;;;;;6.30;3.55;;;24.40;99.90;;;;;;5022226;28;20045;-84
2023/06/10 09:47:51;;;;;;;9.63;3.72;;;24.40;99.90;;;;;;5023506;28;20128;-83
2023/06/10 09:50:17;;;;;;;5.72;3.60;;;24.50;99.90;;;;;;5014853;28;20045;-82
2023/06/10 09:52:45;;;;;;;8.27;3.83;;;24.50;99.90;;;;;;5017644;28;20279;-82
2023/06/10 09:55:11;;;;;;;10.00;3.28;;;24.50;99.90;;;;;;5019966;28;20041;-82
2023/06/10 09:57:36;;;;;;;7.15;3.80;;;24.70;99.90;;;;;;5002548;28;20053;-87
2023/06/10 10:00:10;;;;;;;5.10;3.38;;;24.80;99.90;;;;;;5009149;28;20045;-84
2023/06/10 10:02:53;;;;;;;7.70;3.22;;;24.90;99.90;;;;;;5011542;28;20041;-83
2023/06/10 10:05:20;;;;;;;;;;;25.00;99.90;;;;;;5015646;28;20041;-82
2023/06/10 10:07:46;;;;;;;5.90;3.28;;;25.00;99.90;;;;;;5017697;28;19968;-85
2023/06/10 10:10:13;;;;;;;7.82;3.13;;;25.10;99.90;;;;;;5018728;28;20128;-86
2023/06/10 10:12:40;;;;;;;7.45;2.92;;;25.10;99.90;;;;;;5018080;28;20069;-82
2023/06/10 10:15:08;;;;;;;5.35;3.30;;;25.20;99.90;;;;;;5018323;28;20033;-83
2023/06/10 10:17:37;;;;;;;8.07;3.20;;;25.30;99.90;;;;;;5021374;28;20055;-87
2023/06/10 10:20:05;;;;;;;6.53;3.42;;;25.20;99.90;;;;;;5018483;28;20041;-82
2023/06/10 10:22:43;;;;;;;5.78;3.20;;;25.30;99.90;;;;;;4996540;28;20041;-82
2023/06/10 10:25:16;;;;;;;8.52;3.83;;;25.40;99.90;;;;;;5024636;28;20038;-84
2023/06/10 10:27:51;;;;;;;7.25;3.65;;;25.50;99.90;;;;;;5013531;28;20128;-81
2023/06/10 10:30:19;;;;;;;6.30;3.22;;;25.50;99.90;;;;;;5015935;28;20115;-82
2023/06/10 10:33:19;;;;;;;6.00;2.80;;;25.60;99.90;;;;;;5019763;28;20181;-84
2023/06/10 10:35:46;;;;;;;8.80;3.58;;;25.50;99.90;;;;;;5022511;28;20061;-84
2023/06/10 10:38:12;;;;;;;8.93;3.80;;;25.60;99.90;;;;;;5025857;28;20041;-85
2023/06/10 10:40:38;;;;;;;6.18;3.38;;;25.70;99.90;;;;;;5029143;28;20049;-82
2023/06/10 10:43:05;;;;;;;8.70;3.70;;;25.80;99.90;;;;;;5025002;28;20384;-83
2023/06/10 10:45:33;;;;;;;6.18;3.03;;;25.80;99.90;;;;;;5024578;28;20049;-86
2023/06/10 10:48:17;;;;;;;6.05;3.10;;;25.80;99.90;;;;;;5007006;28;20049;-81
2023/06/10 10:50:42;;;;;;;7.43;3.47;;;25.90;99.90;;;;;;5012101;28;20046;-86
2023/06/10 10:53:08;;;;;;;6.53;3.17;;;26.00;99.90;;;;;;5019183;28;20049;-85
2023/06/10 10:55:34;;;;;;;6.55;3.15;;;26.00;99.90;;;;;;5024376;28;20045;-86
2023/06/10 10:58:08;;;;;;;10.48;4.47;;;26.10;99.90;;;;;;5020158;28;20115;-86
2023/06/10 11:00:37;;;;;;;8.05;3.05;;;26.20;99.90;;;;;;5018092;28;20479;-81
2023/06/10 11:03:02;;;;;;;5.68;3.20;;;26.10;99.90;;;;;;5025569;28;20072;-81
2023/06/10 11:05:48;;;;;;;5.38;3.30;;;26.10;99.90;;;;;;5028142;28;20045;-82
2023/06/10 11:08:35;;;;;;;8.20;3.05;;;26.10;99.90;;;;;;5023110;28;20136;-82
2023/06/10 11:11:19;;;;;;;8.20;3.50;;;26.10;99.90;;;;;;5008793;28;20056;-83
2023/06/10 11:14:08;;;;;;;6.75;3.50;;;26.20;99.90;;;;;;5023192;28;20092;-77
2023/06/10 11:16:41;;;;;;;9.25;3.58;;;26.30;99.90;;;;;;5005020;28;20661;-86
2023/06/10 11:19:07;;;;;;;4.43;2.60;;;26.40;99.50;;;;;;5024168;28;20194;-81
2023/06/10 11:21:57;;;;;;;6.45;3.03;;;26.30;98.80;;;;;;5008142;28;20053;-80
2023/06/10 11:24:23;;;;;;;6.18;3.72;;;26.30;99.70;;;;;;5020058;28;20123;-80
2023/06/10 11:26:48;;;;;;;8.43;3.47;;;26.40;99.90;;;;;;5029786;28;20050;-80
2023/06/10 11:29:15;;;;;;;5.30;3.10;;;26.40;99.90;;;;;;5025774;28;20037;-81
2023/06/10 11:31:48;;;;;;;5.15;2.88;;;26.40;99.80;;;;;;5022875;28;20045;-81
2023/06/10 11:34:15;;;;;;;9.45;3.10;;;26.40;99.90;;;;;;5026835;28;20325;-81
2023/06/10 11:36:44;;;;;;;5.90;2.70;;;26.60;99.60;;;;;;5024045;28;20042;-80
2023/06/10 11:39:10;;;;;;;7.18;3.17;;;26.70;99.20;;;;;;5026247;28;20128;-79
2023/06/10 11:41:38;;;;;;;6.72;2.83;;;26.90;98.80;;;;;;5025750;28;20059;-80
2023/06/10 11:44:12;;;;;;;7.18;2.92;;;26.90;98.70;;;;;;5018776;28;20111;-80
2023/06/10 11:46:39;;;;;;;5.70;2.97;;;26.80;98.50;;;;;;5022920;28;20037;-82
2023/06/10 11:49:05;;;;;;;4.20;2.83;;;26.80;97.50;;;;;;5022939;28;20107;-82
2023/06/10 11:51:36;;;;;;;9.80;3.03;;;26.80;97.30;;;;;;5007511;28;20042;-81
2023/06/10 11:54:03;;;;;;;6.82;3.28;;;26.80;98.30;;;;;;5026711;28;20062;-79
2023/06/10 11:56:30;;;;;;;4.93;2.65;;;26.80;99.60;;;;;;5027566;28;20512;-80
2023/06/10 11:59:09;;;;;;;5.65;3.17;;;26.90;98.60;;;;;;5018455;28;20132;-81
2023/06/10 12:01:42;;;;;;;5.20;3.00;;;26.90;99.70;;;;;;5020027;28;20046;-82
2023/06/10 12:04:09;;;;;;;6.15;2.72;;;27.00;98.90;;;;;;5025569;28;20519;-81
2023/06/10 12:06:39;;;;;;;8.02;3.55;;;27.00;97.60;;;;;;5027674;28;20048;-79
2023/06/10 12:09:05;;;;;;;5.15;3.03;;;27.10;99.60;;;;;;5022882;28;20041;-78
2023/06/10 12:11:31;;;;;;;5.65;3.10;;;27.10;99.90;;;;;;5026163;28;20037;-80
2023/06/10 12:13:57;;;;;;;6.57;2.53;;;27.20;98.60;;;;;;5008924;28;21025;-81
2023/06/10 12:16:22;;;;;;;7.07;3.22;;;27.40;97.60;;;;;;5009271;28;20136;-80
2023/06/10 12:18:48;;;;;;;5.45;3.03;;;27.40;98.40;;;;;;5016412;28;20484;-80
2023/06/10 12:21:31;;;;;;;5.40;2.60;;;27.40;98.90;;;;;;5024786;28;20048;-82
2023/06/10 12:24:07;;;;;;;6.45;2.67;;;27.50;98.90;;;;;;5023332;28;20091;-79
2023/06/10 12:26:39;;;;;;;6.32;3.35;;;27.40;98.50;;;;;;5023114;28;20100;-81
2023/06/10 12:29:24;;;;;;;5.90;2.72;;;27.40;98.40;;;;;;5023893;28;20393;-81
2023/06/10 12:32:00;;;;;;;5.93;2.78;;;27.50;99.00;;;;;;5019662;28;20596;-80
2023/06/10 12:34:39;;;;;;;6.20;3.40;;;27.50;98.70;;;;;;5037027;28;20544;-81
2023/06/10 12:37:13;;;;;;;9.20;3.90;;;27.50;99.90;;;;;;5019395;28;20049;-77
2023/06/10 12:39:39;;;;;;;11.13;4.80;;;27.50;99.90;;;;;;5021844;28;20395;-76
2023/06/10 12:42:08;;;;;;;8.82;4.05;;;27.50;99.90;;;;;;5021489;28;20095;-80
2023/06/10 12:44:38;;;;;;;7.40;3.80;;;27.40;99.90;;;;;;5019918;28;20596;-78